Time;durP1;ratioP1;P1;durP2;ratioP2;P2;SDS_P1;SDS_P2;PMS_P1;PMS_P2;Temp;Humidity;BMP_temperature;BMP_pressure;BME280_temperature;BME280_humidity;BME280_pressure;Samples;Min_cycle;Max_cycle;Signal;HPM_P1;HPM_P2
2023/12/29 00:01:30;;;;;;;;;0.00;0.00;;;;;13.66;100.00;101316.47;5057086;28;45561;-80
2023/12/29 00:03:56;;;;;;;;;0.00;0.00;;;;;13.83;100.00;101319.38;5038982;28;45432;-81
2023/12/29 00:06:21;;;;;;;;;0.00;0.00;;;;;13.89;100.00;101324.44;5057500;28;45278;-81
2023/12/29 00:08:47;;;;;;;;;0.00;0.00;;;;;13.88;100.00;101324.47;5056588;28;68333;-80
2023/12/29 00:11:19;;;;;;;;;0.00;0.00;;;;;14.06;100.00;101316.00;5057083;28;46029;-81
2023/12/29 00:13:45;;;;;;;;;0.00;0.00;;;;;14.07;100.00;101317.69;5057227;28;45345;-81
2023/12/29 00:16:10;;;;;;;;;0.00;0.00;;;;;14.10;100.00;101329.84;5039136;28;45542;-81
2023/12/29 00:18:37;;;;;;;;;0.00;0.00;;;;;14.16;100.00;101331.41;5037835;28;68399;-80
2023/12/29 00:21:02;;;;;;;;;0.00;0.00;;;;;14.24;100.00;101329.34;5057005;28;45556;-81
2023/12/29 00:23:28;;;;;;;;;0.00;0.00;;;;;14.22;100.00;101329.41;5056948;28;45293;-80
2023/12/29 00:25:53;;;;;;;;;0.00;0.00;;;;;14.23;100.00;101330.28;5056141;28;69556;-80
2023/12/29 00:28:18;;;;;;;;;0.00;0.00;;;;;14.26;100.00;101324.91;5037846;28;70468;-80
2023/12/29 00:30:43;;;;;;;;;0.00;0.00;;;;;14.32;100.00;101320.31;5055902;28;68464;-80
2023/12/29 00:33:09;;;;;;;;;0.00;0.00;;;;;14.27;100.00;101327.47;5055566;28;71910;-80
2023/12/29 00:35:37;;;;;;;;;0.00;0.00;;;;;14.31;100.00;101325.63;5056615;28;47116;-80
2023/12/29 00:38:03;;;;;;;;;0.00;0.00;;;;;14.36;100.00;101315.84;5056813;28;45469;-81
2023/12/29 00:40:28;;;;;;;;;0.00;0.00;;;;;14.40;100.00;101314.81;5056411;28;46344;-81
2023/12/29 00:42:53;;;;;;;;;0.00;0.00;;;;;14.32;100.00;101319.47;5055795;28;60106;-80
2023/12/29 00:45:21;;;;;;;;;0.00;0.00;;;;;14.33;100.00;101316.78;5055731;28;68477;-81
2023/12/29 00:47:46;;;;;;;;;0.00;0.00;;;;;14.39;100.00;101313.09;5056345;28;45350;-81
2023/12/29 00:50:11;;;;;;;;;0.00;0.00;;;;;14.37;100.00;101301.81;5037213;28;75698;-81
2023/12/29 00:52:36;;;;;;;;;0.00;0.00;;;;;14.38;100.00;101306.16;5056485;28;45391;-81
2023/12/29 00:55:02;;;;;;;;;0.00;0.00;;;;;14.35;100.00;101308.03;5055613;28;68971;-81
2023/12/29 00:57:27;;;;;;;;;0.00;0.00;;;;;14.27;100.00;101313.53;5056576;28;45408;-81
2023/12/29 00:59:53;;;;;;;;;0.00;0.00;;;;;14.25;100.00;101307.50;5055359;28;74394;-81
2023/12/29 01:02:18;;;;;;;;;0.00;0.00;;;;;14.18;100.00;101313.88;5037589;28;46826;-80
2023/12/29 01:04:43;;;;;;;;;0.00;0.00;;;;;14.23;100.00;101301.47;5037881;28;49111;-81
2023/12/29 01:07:08;;;;;;;;;0.00;0.00;;;;;14.23;100.00;101307.56;5037892;28;45295;-81
2023/12/29 01:09:38;;;;;;;;;0.00;0.00;;;;;14.21;100.00;101306.75;5055232;28;75329;-81
2023/12/29 01:12:04;;;;;;;;;0.00;0.00;;;;;14.22;100.00;101299.75;5056086;28;45498;-81
2023/12/29 01:14:29;;;;;;;;;0.00;0.00;;;;;14.18;100.00;101293.75;5056265;28;45360;-81
2023/12/29 01:16:55;;;;;;;;;0.00;0.00;;;;;14.21;100.00;101298.91;5055931;28;45448;-81
2023/12/29 01:19:20;;;;;;;;;0.67;0.67;;;;;14.10;100.00;101301.03;5037567;28;53526;-80
2023/12/29 01:21:45;;;;;;;;;0.00;0.00;;;;;14.15;100.00;101296.47;5055001;28;73254;-81
2023/12/29 01:24:11;;;;;;;;;0.00;0.00;;;;;14.14;100.00;101284.31;5056053;28;45377;-81
2023/12/29 01:26:37;;;;;;;;;0.00;0.00;;;;;14.19;100.00;101292.00;5055055;28;69328;-81
2023/12/29 01:29:03;;;;;;;;;1.50;1.50;;;;;14.14;100.00;101293.00;5055758;28;46462;-81
2023/12/29 01:31:30;;;;;;;;;0.00;0.00;;;;;14.12;100.00;101291.38;5037470;28;45280;-80
2023/12/29 01:33:55;;;;;;;;;0.00;0.00;;;;;14.18;100.00;101288.53;5056058;28;45369;-81
2023/12/29 01:36:21;;;;;;;;;0.00;0.00;;;;;14.13;100.00;101282.59;5055211;28;65214;-80
2023/12/29 01:38:46;;;;;;;;;0.50;0.50;;;;;14.20;100.00;101291.94;5055666;28;46430;-81
2023/12/29 01:41:13;;;;;;;;;0.00;0.00;;;;;14.23;100.00;101286.59;5055653;28;45321;-81
2023/12/29 01:43:58;;;;;;;;;0.00;0.00;;;;;14.35;100.00;101290.53;5055986;28;45501;-81
2023/12/29 01:46:29;;;;;;;;;0.00;0.00;;;;;14.41;100.00;101292.09;5055300;28;45655;-81
2023/12/29 01:48:54;;;;;;;;;0.00;0.00;;;;;14.43;100.00;101296.38;5037477;28;46593;-81
2023/12/29 01:51:22;;;;;;;;;0.00;0.00;;;;;14.46;100.00;101298.03;5037651;28;45387;-80
2023/12/29 01:53:48;;;;;;;;;0.00;0.00;;;;;14.49;100.00;101298.75;5055857;28;45332;-81
2023/12/29 01:56:13;;;;;;;;;0.00;0.00;;;;;14.56;100.00;101290.69;5054694;28;70658;-81
2023/12/29 01:58:39;;;;;;;;;0.00;0.00;;;;;14.58;100.00;101300.25;5054458;28;75341;-81
2023/12/29 02:01:04;;;;;;;;;0.00;0.00;;;;;14.50;100.00;101300.50;5036167;28;73308;-80
2023/12/29 02:03:30;;;;;;;;;0.00;0.00;;;;;14.58;100.00;101295.00;5040626;28;57645;-81
2023/12/29 02:05:55;;;;;;;;;0.00;0.00;;;;;14.58;100.00;101304.59;5040345;28;70608;-80
2023/12/29 02:08:23;;;;;;;;;0.00;0.00;;;;;14.60;100.00;101295.78;5041129;28;45487;-80
2023/12/29 02:10:48;;;;;;;;;0.00;0.00;;;;;14.56;100.00;101293.28;5041291;28;45472;-81
2023/12/29 02:13:14;;;;;;;;;0.00;0.00;;;;;14.63;100.00;101300.91;5040756;28;45331;-80
2023/12/29 02:15:40;;;;;;;;;0.00;0.00;;;;;14.70;100.00;101305.00;5058738;28;45444;-81
2023/12/29 02:18:06;;;;;;;;;0.00;0.00;;;;;14.68;100.00;101311.22;5059025;28;46340;-81
2023/12/29 02:20:31;;;;;;;;;0.00;0.00;;;;;14.67;100.00;101301.66;5040947;28;45378;-81
2023/12/29 02:22:57;;;;;;;;;0.00;0.00;;;;;14.71;100.00;101295.41;5040048;28;68395;-81
2023/12/29 02:25:22;;;;;;;;;0.00;0.00;;;;;14.74;100.00;101297.03;5058916;28;45564;-81
2023/12/29 02:27:57;;;;;;;;;0.00;0.00;;;;;14.76;100.00;101301.31;5041042;28;45303;-81
2023/12/29 02:30:35;;;;;;;;;0.00;0.00;;;;;14.81;100.00;101298.53;5040433;28;45357;-81
2023/12/29 02:33:02;;;;;;;;;0.00;0.00;;;;;14.80;100.00;101292.44;5040797;28;45380;-81
2023/12/29 02:35:28;;;;;;;;;0.00;0.00;;;;;14.79;100.00;101297.72;5058906;28;45416;-80
2023/12/29 02:37:55;;;;;;;;;0.00;0.00;;;;;14.83;100.00;101289.69;5040651;28;46372;-80
2023/12/29 02:40:20;;;;;;;;;0.00;0.00;;;;;14.85;100.00;101285.22;5040695;28;45375;-81
2023/12/29 02:42:49;;;;;;;;;0.00;0.00;;;;;14.84;100.00;101295.75;5040528;28;45795;-81
2023/12/29 02:45:17;;;;;;;;;0.00;0.00;;;;;14.82;100.00;101287.09;5058330;28;45365;-81
2023/12/29 02:47:44;;;;;;;;;0.00;0.00;;;;;14.83;100.00;101289.69;5058568;28;45420;-81
2023/12/29 02:50:09;;;;;;;;;0.00;0.00;;;;;14.80;100.00;101278.47;5040573;28;45422;-81
2023/12/29 02:52:34;;;;;;;;;0.00;0.00;;;;;14.71;100.00;101277.91;5058478;28;45423;-80
2023/12/29 02:55:00;;;;;;;;;0.00;0.00;;;;;14.67;100.00;101275.44;5039460;28;68641;-80
2023/12/29 02:57:25;;;;;;;;;0.00;0.00;;;;;14.71;100.00;101269.19;5057114;28;76547;-81
2023/12/29 02:59:50;;;;;;;;;0.00;0.00;;;;;14.73;100.00;101253.38;5057035;28;73003;-80
2023/12/29 03:02:16;;;;;;;;;0.00;0.00;;;;;14.75;100.00;101257.69;5058129;28;45455;-81
2023/12/29 03:04:41;;;;;;;;;0.00;0.00;;;;;14.79;100.00;101253.19;5058025;28;46471;-81
2023/12/29 03:07:07;;;;;;;;;0.00;0.00;;;;;14.78;100.00;101248.84;5039892;28;51287;-81
2023/12/29 03:09:32;;;;;;;;;0.00;0.00;;;;;14.80;100.00;101242.66;5058110;28;45351;-81
2023/12/29 03:11:58;;;;;;;;;0.00;0.00;;;;;14.87;100.00;101248.47;5058114;28;45378;-81
2023/12/29 03:14:23;;;;;;;;;0.00;0.00;;;;;14.88;100.00;101253.66;5055752;28;68954;-81
2023/12/29 03:16:48;;;;;;;;;0.00;0.00;;;;;14.88;100.00;101244.97;5056668;28;75448;-81
2023/12/29 03:19:13;;;;;;;;;0.00;0.00;;;;;14.89;100.00;101249.28;5057076;28;73174;-81
2023/12/29 03:21:39;;;;;;;;;0.00;0.00;;;;;14.85;100.00;101245.91;5057004;28;70244;-81
2023/12/29 03:24:04;;;;;;;;;0.00;0.00;;;;;14.90;100.00;101238.75;5056805;28;70478;-81
2023/12/29 03:26:30;;;;;;;;;0.00;0.00;;;;;14.88;100.00;101248.44;5039938;28;46461;-81
2023/12/29 03:28:55;;;;;;;;;0.00;0.00;;;;;14.79;100.00;101245.31;5056589;28;73196;-81
2023/12/29 03:31:21;;;;;;;;;0.00;0.00;;;;;14.81;100.00;101240.88;5057907;28;45317;-81
2023/12/29 03:33:46;;;;;;;;;0.00;0.00;;;;;14.71;100.00;101233.34;5057909;28;45302;-81
2023/12/29 03:36:12;;;;;;;;;0.00;0.00;;;;;14.70;100.00;101241.28;5057788;28;48363;-81
2023/12/29 03:38:37;;;;;;;;;0.00;0.00;;;;;14.80;100.00;101239.16;5057845;28;45286;-81
2023/12/29 03:41:03;;;;;;;;;0.00;0.00;;;;;14.86;100.00;101238.94;5040025;28;45405;-81
2023/12/29 03:43:29;;;;;;;;;0.00;0.00;;;;;14.91;100.00;101239.59;5057207;28;45324;-81
2023/12/29 03:45:54;;;;;;;;;0.00;0.00;;;;;14.93;100.00;101229.03;5039533;28;46639;-81
2023/12/29 03:48:20;;;;;;;;;0.00;0.00;;;;;14.96;100.00;101228.94;5057753;28;45425;-81
2023/12/29 03:50:45;;;;;;;;;0.00;0.00;;;;;14.89;100.00;101229.19;5038968;28;59154;-81
2023/12/29 03:53:10;;;;;;;;;0.00;0.00;;;;;14.96;100.00;101223.69;5038634;28;69467;-81
2023/12/29 03:55:37;;;;;;;;;0.00;0.00;;;;;14.93;100.00;101221.19;5056913;28;58527;-81
2023/12/29 03:58:02;;;;;;;;;0.00;0.00;;;;;14.85;100.00;101221.47;5057265;28;45458;-81
2023/12/29 04:00:27;;;;;;;;;0.00;0.00;;;;;14.76;100.00;101224.47;5039624;28;45340;-81
2023/12/29 04:02:53;;;;;;;;;0.00;0.00;;;;;14.76;100.00;101225.31;5057105;28;54910;-81
2023/12/29 04:05:19;;;;;;;;;0.00;0.00;;;;;14.88;100.00;101218.75;5056133;28;75545;-82
2023/12/29 04:07:44;;;;;;;;;0.00;0.00;;;;;14.80;100.00;101219.06;5038264;28;69130;-81
2023/12/29 04:10:09;;;;;;;;;0.00;0.00;;;;;14.99;100.00;101221.81;5056340;28;69902;-81
2023/12/29 04:12:35;;;;;;;;;0.00;0.00;;;;;14.96;100.00;101229.78;5056999;28;45347;-81
2023/12/29 04:15:00;;;;;;;;;0.00;0.00;;;;;15.03;100.00;101223.38;5039243;28;47015;-81
2023/12/29 04:17:26;;;;;;;;;0.00;0.00;;;;;15.05;100.00;101216.31;5057132;28;45407;-82
2023/12/29 04:19:51;;;;;;;;;0.00;0.00;;;;;15.03;100.00;101210.28;5021721;28;69201;-81
2023/12/29 04:22:16;;;;;;;;;0.00;0.00;;;;;15.00;100.00;101217.41;5056167;28;70165;-81
2023/12/29 04:24:41;;;;;;;;;0.00;0.00;;;;;14.89;100.00;101221.31;5055394;28;74440;-81
2023/12/29 04:27:07;;;;;;;;;0.00;0.00;;;;;15.03;100.00;101218.13;5055944;28;69051;-81
2023/12/29 04:29:32;;;;;;;;;0.00;0.00;;;;;15.05;100.00;101204.97;5057072;28;45720;-81
2023/12/29 04:31:57;;;;;;;;;0.00;0.00;;;;;15.01;100.00;101209.47;5057189;28;45368;-81
2023/12/29 04:34:23;;;;;;;;;0.00;0.00;;;;;14.95;100.00;101211.47;5056047;28;71153;-80
2023/12/29 04:36:48;;;;;;;;;0.00;0.00;;;;;15.05;100.00;101200.56;5055813;28;73048;-81
2023/12/29 04:39:13;;;;;;;;;0.00;0.00;;;;;14.94;100.00;101205.41;5056221;28;68062;-80
2023/12/29 04:41:39;;;;;;;;;0.00;0.00;;;;;14.90;100.00;101209.91;5056229;28;45379;-80
2023/12/29 04:44:04;;;;;;;;;0.00;0.00;;;;;14.98;100.00;101219.22;5055483;28;75278;-80
2023/12/29 04:46:29;;;;;;;;;0.00;0.00;;;;;15.06;100.00;101204.91;5056122;28;70912;-80
2023/12/29 04:48:55;;;;;;;;;0.00;0.00;;;;;15.12;100.00;101206.44;5056966;28;45342;-80
2023/12/29 04:51:20;;;;;;;;;0.00;0.00;;;;;15.09;100.00;101207.41;5038156;28;61296;-80
2023/12/29 04:53:46;;;;;;;;;0.00;0.00;;;;;15.11;100.00;101212.59;5056487;28;45879;-80
2023/12/29 04:56:11;;;;;;;;;0.00;0.00;;;;;15.02;100.00;101192.81;5056512;28;45356;-80
2023/12/29 04:58:37;;;;;;;;;0.00;0.00;;;;;15.15;100.00;101194.97;5056832;28;45346;-80
2023/12/29 05:01:02;;;;;;;;;0.00;0.00;;;;;15.13;100.00;101199.41;5056814;28;45317;-81
2023/12/29 05:03:28;;;;;;;;;0.00;0.00;;;;;15.13;100.00;101191.56;5056674;28;45551;-80
2023/12/29 05:05:53;;;;;;;;;0.00;0.00;;;;;15.11;100.00;101202.09;5055491;28;71943;-80
2023/12/29 05:08:18;;;;;;;;;0.00;0.00;;;;;15.18;100.00;101195.69;5056253;28;56045;-81
2023/12/29 05:10:44;;;;;;;;;0.00;0.00;;;;;15.12;100.00;101203.81;5055509;28;61923;-80
2023/12/29 05:13:09;;;;;;;;;0.00;0.00;;;;;15.17;100.00;101204.47;5037146;28;74462;-81
2023/12/29 05:15:34;;;;;;;;;0.00;0.00;;;;;15.17;100.00;101193.97;5037681;28;73258;-81
2023/12/29 05:18:00;;;;;;;;;0.00;0.00;;;;;15.17;100.00;101204.47;5055921;28;69237;-81
2023/12/29 05:20:25;;;;;;;;;0.00;0.00;;;;;15.17;100.00;101203.63;5056678;28;45220;-81
2023/12/29 05:22:50;;;;;;;;;0.00;0.00;;;;;15.21;100.00;101207.81;5055316;28;76066;-81
2023/12/29 05:25:16;;;;;;;;;0.00;0.00;;;;;15.13;100.00;101212.53;5036952;28;72168;-81
2023/12/29 05:27:41;;;;;;;;;0.00;0.00;;;;;15.14;100.00;101211.63;5055380;28;68057;-81
2023/12/29 05:30:06;;;;;;;;;0.00;0.00;;;;;15.23;100.00;101214.72;5055837;28;52149;-80
2023/12/29 05:32:32;;;;;;;;;0.00;0.00;;;;;15.23;100.00;101222.59;5055896;28;46130;-80
2023/12/29 05:34:57;;;;;;;;;0.00;0.00;;;;;15.17;100.00;101220.19;5037121;28;72174;-80
2023/12/29 05:37:22;;;;;;;;;0.00;0.00;;;;;15.18;100.00;101226.31;5036556;28;59691;-80
2023/12/29 05:39:48;;;;;;;;;0.00;0.00;;;;;15.06;100.00;101227.63;5055710;28;45187;-80
2023/12/29 05:42:13;;;;;;;;;0.00;0.00;;;;;15.15;100.00;101234.28;5055135;28;57513;-80
2023/12/29 05:44:38;;;;;;;;;0.00;0.00;;;;;15.10;100.00;101226.63;5055091;28;63312;-80
2023/12/29 05:47:04;;;;;;;;;0.00;0.00;;;;;15.03;100.00;101235.66;5055275;28;59641;-80
2023/12/29 05:49:31;;;;;;;;;0.00;0.00;;;;;15.22;100.00;101225.25;5056074;28;45314;-80
2023/12/29 05:51:57;;;;;;;;;0.00;0.00;;;;;15.17;100.00;101211.47;5055354;28;47305;-81
2023/12/29 05:54:22;;;;;;;;;0.00;0.00;;;;;15.25;100.00;101214.66;5037786;28;45390;-81
2023/12/29 05:56:47;;;;;;;;;0.00;0.00;;;;;15.21;100.00;101208.69;5056142;28;45421;-81
2023/12/29 05:59:13;;;;;;;;;0.00;0.00;;;;;15.07;100.00;101216.25;5055252;28;59913;-80
2023/12/29 06:01:38;;;;;;;;;0.00;0.00;;;;;15.02;100.00;101213.78;5055163;28;52563;-80
2023/12/29 06:04:03;;;;;;;;;0.00;0.00;;;;;15.12;100.00;101201.19;5055315;28;57917;-80
2023/12/29 06:06:29;;;;;;;;;0.00;0.00;;;;;14.94;100.00;101217.66;5055669;28;45384;-79
2023/12/29 06:08:54;;;;;;;;;6.00;1.00;;;;;15.00;100.00;101206.91;5055934;28;45490;-81
2023/12/29 06:11:20;;;;;;;;;0.00;0.00;;;;;15.04;100.00;101211.13;5054866;28;64327;-80
2023/12/29 06:13:46;;;;;;;;;0.00;0.00;;;;;14.95;100.00;101211.47;5055686;28;45588;-80
2023/12/29 06:16:17;;;;;;;;;0.00;0.00;;;;;14.94;100.00;101215.88;5055864;28;45466;-80
2023/12/29 06:18:42;;;;;;;;;0.00;0.00;;;;;15.06;100.00;101217.16;5037695;28;45302;-81
2023/12/29 06:21:08;;;;;;;;;0.00;0.00;;;;;15.09;100.00;101215.25;5054678;28;59223;-81
2023/12/29 06:23:34;;;;;;;;;0.00;0.00;;;;;14.94;100.00;101225.53;5055462;28;45372;-80
2023/12/29 06:25:59;;;;;;;;;0.00;0.00;;;;;14.99;100.00;101224.44;5055374;28;47966;-80
2023/12/29 06:28:24;;;;;;;;;0.00;0.00;;;;;15.06;100.00;101225.88;5055303;28;48760;-81
2023/12/29 06:30:50;;;;;;;;;0.00;0.00;;;;;15.03;100.00;101223.38;5055275;28;46111;-80
2023/12/29 06:33:16;;;;;;;;;0.00;0.00;;;;;15.16;100.00;101223.75;5055432;28;45378;-81
2023/12/29 06:35:41;;;;;;;;;0.00;0.00;;;;;15.09;100.00;101231.00;5055038;28;45294;-81
2023/12/29 06:38:07;;;;;;;;;0.00;0.00;;;;;15.17;100.00;101227.22;5055476;28;45431;-81
2023/12/29 06:40:32;;;;;;;;;0.00;0.00;;;;;14.99;100.00;101224.44;5036594;28;59868;-80
2023/12/29 06:42:57;;;;;;;;;0.00;0.00;;;;;15.18;100.00;101216.66;5054493;28;55236;-81
2023/12/29 06:45:23;;;;;;;;;0.00;0.00;;;;;15.20;100.00;101219.22;5036759;28;51504;-81
2023/12/29 06:47:48;;;;;;;;;0.00;0.00;;;;;15.12;100.00;101221.28;5056691;28;45226;-80
2023/12/29 06:50:13;;;;;;;;;0.00;0.00;;;;;15.18;100.00;101221.91;5040128;28;46348;-81
2023/12/29 06:52:39;;;;;;;;;0.00;0.00;;;;;15.12;100.00;101218.66;5058589;28;45333;-80
2023/12/29 06:55:05;;;;;;;;;0.00;0.00;;;;;15.19;100.00;101230.63;5058612;28;45415;-80
2023/12/29 06:57:31;;;;;;;;;0.00;0.00;;;;;15.22;100.00;101217.41;5058581;28;45517;-81
2023/12/29 06:59:56;;;;;;;;;0.00;0.00;;;;;15.13;100.00;101218.63;5057852;28;66423;-81
2023/12/29 07:02:22;;;;;;;;;0.00;0.00;;;;;15.14;100.00;101209.00;5058252;28;45376;-80
2023/12/29 07:04:47;;;;;;;;;0.00;0.00;;;;;15.09;100.00;101209.16;5040236;28;45365;-81
2023/12/29 07:07:12;;;;;;;;;0.00;0.00;;;;;15.14;100.00;101207.22;5058146;28;50151;-81
2023/12/29 07:09:39;;;;;;;;;0.00;0.00;;;;;15.03;100.00;101212.91;5057555;28;63463;-81
2023/12/29 07:12:05;;;;;;;;;0.00;0.00;;;;;15.04;100.00;101198.88;5058216;28;45422;-80
2023/12/29 07:14:30;;;;;;;;;0.00;0.00;;;;;15.05;100.00;101213.69;5058544;28;45369;-81
2023/12/29 07:16:56;;;;;;;;;0.00;0.00;;;;;15.04;100.00;101203.25;5040289;28;45677;-81
2023/12/29 07:19:21;;;;;;;;;0.00;0.00;;;;;14.94;100.00;101200.16;5039302;28;59470;-80
2023/12/29 07:21:46;;;;;;;;;0.00;0.00;;;;;14.90;100.00;101207.28;5040080;28;45386;-80
2023/12/29 07:24:12;;;;;;;;;0.00;0.00;;;;;14.76;100.00;101193.00;5057961;28;51160;-80
2023/12/29 07:26:37;;;;;;;;;0.00;0.00;;;;;14.73;100.00;101195.75;5057665;28;55256;-80
2023/12/29 07:29:02;;;;;;;;;0.00;0.00;;;;;14.71;100.00;101190.59;5058027;28;45908;-81
2023/12/29 07:31:28;;;;;;;;;0.00;0.00;;;;;14.64;100.00;101202.22;5057399;28;63566;-81
2023/12/29 07:33:53;;;;;;;;;0.00;0.00;;;;;14.47;100.00;101218.53;5057707;28;52869;-80
2023/12/29 07:36:18;;;;;;;;;0.00;0.00;;;;;14.57;100.00;101192.84;5039649;28;52999;-80
2023/12/29 07:38:44;;;;;;;;;0.00;0.00;;;;;14.68;100.00;101188.91;5057882;28;46974;-81
2023/12/29 07:41:09;;;;;;;;;0.00;0.00;;;;;14.62;100.00;101188.31;5057789;28;45353;-80
2023/12/29 07:43:35;;;;;;;;;0.00;0.00;;;;;14.56;100.00;101196.38;5039695;28;50196;-80
2023/12/29 07:46:01;;;;;;;;;0.50;0.50;;;;;14.47;100.00;101201.06;5040004;28;45364;-80
2023/12/29 07:48:27;;;;;;;;;0.00;0.00;;;;;14.47;100.00;101202.84;5039782;28;45476;-81
2023/12/29 07:50:52;;;;;;;;;0.00;0.00;;;;;14.52;100.00;101204.38;5057065;28;67383;-81
2023/12/29 07:53:17;;;;;;;;;0.00;0.00;;;;;14.56;100.00;101209.47;5039379;28;51370;-81
2023/12/29 07:55:43;;;;;;;;;0.00;0.00;;;;;14.52;100.00;101200.88;5039163;28;57698;-81
2023/12/29 07:58:10;;;;;;;;;0.00;0.00;;;;;14.50;100.00;101197.44;5057467;28;45792;-81
2023/12/29 08:00:36;;;;;;;;;0.00;0.00;;;;;14.57;100.00;101195.47;5056602;28;45389;-81
2023/12/29 08:03:01;;;;;;;;;0.00;0.00;;;;;14.53;100.00;101194.72;5039250;28;45375;-80
2023/12/29 08:05:27;;;;;;;;;0.00;0.00;;;;;14.51;100.00;101194.78;5057695;28;45284;-81
2023/12/29 08:07:52;;;;;;;;;0.00;0.00;;;;;14.49;100.00;101194.00;5057349;28;47093;-80
2023/12/29 08:10:17;;;;;;;;;0.00;0.00;;;;;14.50;100.00;101185.22;5056585;28;72213;-80
2023/12/29 08:12:43;;;;;;;;;0.00;0.00;;;;;14.39;100.00;101184.75;5056366;28;68480;-80
2023/12/29 08:15:08;;;;;;;;;0.00;0.00;;;;;14.48;100.00;101187.03;5039380;28;45294;-80
2023/12/29 08:17:33;;;;;;;;;0.00;0.00;;;;;14.45;100.00;101200.25;5056720;28;51833;-81
2023/12/29 08:19:59;;;;;;;;;0.00;0.00;;;;;14.58;100.00;101195.44;5056134;28;74229;-80
2023/12/29 08:22:24;;;;;;;;;0.00;0.00;;;;;14.53;100.00;101205.22;5056211;28;69132;-81
2023/12/29 08:24:49;;;;;;;;;0.00;0.00;;;;;14.53;100.00;101195.56;5038211;28;70120;-81
2023/12/29 08:27:22;;;;;;;;;0.00;0.00;;;;;14.57;100.00;101204.22;5056023;28;75729;-81
2023/12/29 08:29:48;;;;;;;;;0.00;0.00;;;;;14.38;100.00;101206.63;5039182;28;45357;-78
2023/12/29 08:32:13;;;;;;;;;0.00;0.00;;;;;14.64;100.00;101191.75;5055619;28;69713;-81
2023/12/29 08:34:38;;;;;;;;;0.00;0.00;;;;;14.70;100.00;101199.34;5056022;28;69799;-80
2023/12/29 08:37:04;;;;;;;;;0.00;0.00;;;;;14.67;100.00;101200.34;5055974;28;75875;-80
2023/12/29 08:39:29;;;;;;;;;0.00;0.00;;;;;14.60;100.00;101203.22;5056862;28;45432;-80
2023/12/29 08:41:54;;;;;;;;;0.00;0.00;;;;;14.77;100.00;101194.75;5055822;28;65343;-81
2023/12/29 08:44:20;;;;;;;;;0.00;0.00;;;;;14.78;100.00;101210.38;5039076;28;45447;-81
2023/12/29 08:46:45;;;;;;;;;0.00;0.00;;;;;14.73;100.00;101220.19;5037415;28;76386;-80
2023/12/29 08:49:10;;;;;;;;;0.00;0.00;;;;;14.69;100.00;101221.22;5037895;28;73083;-80
2023/12/29 08:51:36;;;;;;;;;0.00;0.00;;;;;14.90;100.00;101214.31;5055783;28;67415;-80
2023/12/29 08:54:02;;;;;;;;;0.00;0.00;;;;;14.90;100.00;101222.16;5056799;28;45495;-80
2023/12/29 08:56:29;;;;;;;;;0.00;0.00;;;;;15.04;100.00;101217.25;5038804;28;46265;-81
2023/12/29 08:58:54;;;;;;;;;0.00;0.00;;;;;15.10;100.00;101222.22;5038874;28;45524;-80
2023/12/29 09:01:20;;;;;;;;;0.00;0.00;;;;;15.11;100.00;101225.69;5056439;28;45381;-80
2023/12/29 09:03:45;;;;;;;;;0.00;0.00;;;;;15.23;100.00;101234.81;5055651;28;70487;-81
2023/12/29 09:06:10;;;;;;;;;0.00;0.00;;;;;15.22;100.00;101227.88;5056257;28;47095;-81
2023/12/29 09:08:36;;;;;;;;;0.00;0.00;;;;;15.28;100.00;101246.88;5056614;28;45385;-81
2023/12/29 09:11:02;;;;;;;;;0.00;0.00;;;;;15.45;100.00;101242.66;5056455;28;45309;-80
2023/12/29 09:13:27;;;;;;;;;0.00;0.00;;;;;15.51;100.00;101242.44;5056634;28;45367;-81
2023/12/29 09:15:54;;;;;;;;;0.00;0.00;;;;;15.62;100.00;101240.22;5056115;28;45595;-80
2023/12/29 09:18:19;;;;;;;;;0.00;0.00;;;;;15.67;100.00;101251.38;5038306;28;45360;-81
2023/12/29 09:20:44;;;;;;;;;0.00;0.00;;;;;15.77;100.00;101246.63;5055411;28;68575;-81
2023/12/29 09:23:10;;;;;;;;;0.00;0.00;;;;;15.85;100.00;101239.25;5038284;28;45389;-81
2023/12/29 09:25:35;;;;;;;;;0.00;0.00;;;;;15.93;100.00;101251.22;5055810;28;55493;-81
2023/12/29 09:28:00;;;;;;;;;0.00;0.00;;;;;15.95;100.00;101255.47;5037823;28;54443;-81
2023/12/29 09:30:26;;;;;;;;;0.00;0.00;;;;;16.01;100.00;101249.09;5055181;28;60004;-81
2023/12/29 09:32:51;;;;;;;;;0.00;0.00;;;;;15.94;100.00;101259.03;5037151;28;70121;-81
2023/12/29 09:35:17;;;;;;;;;4.00;0.00;;;;;16.10;100.00;101264.44;5037821;28;47266;-81
2023/12/29 09:37:42;;;;;;;;;0.00;0.00;;;;;16.21;100.00;101256.09;5055995;28;45495;-81
2023/12/29 09:40:10;;;;;;;;;3.00;3.00;;;;;16.32;100.00;101258.25;5056236;28;45539;-81
2023/12/29 09:42:37;;;;;;;;;0.00;0.00;;;;;16.36;100.00;101252.81;5037831;28;45520;-81
2023/12/29 09:45:07;;;;;;;;;0.00;0.00;;;;;16.42;100.00;101256.94;5037542;28;45448;-80
2023/12/29 09:47:36;;;;;;;;;0.00;0.00;;;;;16.55;100.00;101250.19;5038037;28;45437;-81
2023/12/29 09:50:03;;;;;;;;;0.00;0.00;;;;;16.40;100.00;101254.38;5038059;28;45287;-80
2023/12/29 09:52:28;;;;;;;;;0.00;0.00;;;;;16.45;100.00;101249.78;5038180;28;45517;-81
2023/12/29 09:54:54;;;;;;;;;0.00;0.00;;;;;16.47;100.00;101241.78;5036715;28;74364;-81
2023/12/29 09:57:20;;;;;;;;;0.00;0.00;;;;;16.38;100.00;101247.47;5055209;28;60016;-80
2023/12/29 09:59:51;;;;;;;;;0.00;0.00;;;;;16.48;100.00;101247.94;5036678;28;69441;-80
2023/12/29 10:02:16;;;;;;;;;0.00;0.00;;;;;16.59;100.00;101238.63;5055717;28;45310;-81
2023/12/29 10:04:42;;;;;;;;;0.00;0.00;;;;;16.72;100.00;101238.06;5055678;28;46259;-81
2023/12/29 10:07:08;;;;;;;;;0.00;0.00;;;;;16.74;100.00;101246.72;5037749;28;45372;-80
2023/12/29 10:09:38;;;;;;;;;0.00;0.00;;;;;16.71;100.00;101234.56;5037898;28;45443;-80
2023/12/29 10:12:09;;;;;;;;;0.00;0.00;;;;;16.62;100.00;101246.38;5037883;28;45424;-81
2023/12/29 10:14:50;;;;;;;;;0.00;0.00;;;;;16.63;100.00;101250.69;5055253;28;46820;-81
2023/12/29 10:17:29;;;;;;;;;0.00;0.00;;;;;16.56;100.00;101275.53;5037774;28;45310;-81
2023/12/29 10:20:05;;;;;;;;;0.00;0.00;;;;;16.66;100.00;101249.72;5037988;28;45406;-80
2023/12/29 10:22:59;;;;;;;;;0.00;0.00;;;;;16.72;100.00;101249.41;5038419;28;45383;-80
2023/12/29 10:25:25;;;;;;;;;0.00;0.00;;;;;16.70;100.00;101256.53;5041023;28;48162;-81
2023/12/29 10:27:51;;;;;;;;;0.00;0.00;;;;;16.61;100.00;101259.56;5058660;28;45419;-80
2023/12/29 10:30:16;;;;;;;;;7.00;0.00;;;;;16.64;100.00;101262.03;5041186;28;45453;-80
2023/12/29 10:32:41;;;;;;;;;0.00;0.00;;;;;16.86;100.00;101247.94;5040978;28;45413;-81
2023/12/29 10:35:10;;;;;;;;;0.00;0.00;;;;;17.03;100.00;101242.72;5039825;28;73654;-80
2023/12/29 10:37:37;;;;;;;;;0.00;0.00;;;;;17.06;100.00;101255.75;5058727;28;46069;-80
2023/12/29 10:40:03;;;;;;;;;0.00;0.00;;;;;17.09;100.00;101242.44;5058976;28;45299;-80
2023/12/29 10:42:29;;;;;;;;;0.00;0.00;;;;;17.06;100.00;101250.47;5058506;28;45233;-80
2023/12/29 10:45:08;;;;;;;;;0.00;0.00;;;;;17.13;100.00;101244.00;5058453;28;46872;-81
2023/12/29 10:47:38;;;;;;;;;0.00;0.00;;;;;17.02;100.00;101255.03;5058807;28;45374;-81
2023/12/29 10:50:03;;;;;;;;;0.00;0.00;;;;;17.01;100.00;101244.56;5058904;28;45245;-81
2023/12/29 10:52:29;;;;;;;;;0.00;0.00;;;;;17.02;100.00;101238.41;5058751;28;45266;-80
2023/12/29 10:55:09;;;;;;;;;0.00;0.00;;;;;17.00;100.00;101227.94;5057572;28;75196;-80
2023/12/29 10:57:35;;;;;;;;;0.00;0.00;;;;;17.06;100.00;101224.19;5040292;28;45506;-80
2023/12/29 11:00:01;;;;;;;;;0.00;0.00;;;;;17.12;100.00;101231.75;5058926;28;45478;-80
2023/12/29 11:02:28;;;;;;;;;0.00;0.00;;;;;17.15;100.00;101228.16;5040576;28;45651;-80
2023/12/29 11:05:04;;;;;;;;;0.00;0.00;;;;;17.31;100.00;101223.84;5058526;28;47522;-80
2023/12/29 11:07:40;;;;;;;;;0.50;0.00;;;;;17.51;100.00;101233.34;5058457;28;45301;-80
2023/12/29 11:10:07;;;;;;;;;0.00;0.00;;;;;18.93;100.00;101216.22;5040516;28;45321;-80
2023/12/29 11:12:34;;;;;;;;;0.00;0.00;;;;;19.43;100.00;101221.34;5058074;28;45471;-81